倫敦, 英國

2015年3月01日 16時35分 (GMT +0000)
Heathrow | Change Station
CLOSE
Current Station
機場
Location: London,
海拔: 79 ft
附近的氣象站

海拔 79 ft 51.48 °N, 0.46 °W | Updated 15 minutes ago

Partly Cloudy
局部有雲
50 °F
感覺像 50 °F
21
風 變化 風 來自 西南

今日
高 -- | 低 -- °F
--% 降水機率
昨天
高 -- | 低 -- °F
Precip. -- 英寸
6:47 AM 5:41 PM
盈凸月, 86% visible
氣壓 29.47 英寸
能見度 6.2 英里
多雲 少數 4200 ft
露點 37 °F
濕度 62%
降雨量 0.00 英寸
積雪深度 不適用。
紫外線 1 / 12
花粉 不適用。
空氣質素 不適用。
Flu Activity 不適用。
METAR EGLL 011620Z 22018KT 9999 FEW042 10/03 Q0998 TEMPO 25024G36KT 4000 +SHRAGS

More Conditions Fewer Conditions

氣壓 29.47 英寸
能見度 6.2 英里
多雲 少數 4200 ft
露點 37 °F
濕度 62%
降雨量 0.00 英寸
積雪深度 不適用。
紫外線 1 / 12
花粉 不適用。
空氣質素 不適用。
Flu Activity 不適用。
METAR EGLL 011620Z 22018KT 9999 FEW042 10/03 Q0998 TEMPO 25024G36KT 4000 +SHRAGS

More Conditions Fewer Conditions

10-Day Weather Forecast

Almanac

天文

Mar. 01, 2015 昇起 降落
實際時間
民用曙暮光
航海曙暮光
天文學微明
月亮
可見光的長度
白晝時間
Tomorrow will be .
, % of the Moon is Illuminated

今天之最

國家高溫 國家低溫

Community

WunderPhotos

Upload Photos

1,801,451 照片已上傳!

WunderBlogs® & News

Nearby

空氣質素

  空氣質素 空氣質素指數 污染物
Not available.

積雪量

Station 深度 海拔

地震活動

城市 距離 時間和日期
顯示的最小幅度是2.5。

沿海水溫

地點 溫度

附近的氣象站